sensor_id;sensor_type;location;lat;lon;timestamp;temperature;humidity
3492;DHT22;1760;52.480;13.422;2022-09-21T00:01:57;10.00;99.90
3492;DHT22;1760;52.480;13.422;2022-09-21T00:04:23;10.00;99.90
3492;DHT22;1760;52.480;13.422;2022-09-21T00:06:51;10.10;99.90
3492;DHT22;1760;52.480;13.422;2022-09-21T00:09:17;10.00;99.90
3492;DHT22;1760;52.480;13.422;2022-09-21T00:11:46;10.00;99.90
3492;DHT22;1760;52.480;13.422;2022-09-21T00:14:13;10.10;99.90
3492;DHT22;1760;52.480;13.422;2022-09-21T00:16:41;10.00;99.90
3492;DHT22;1760;52.480;13.422;2022-09-21T00:19:09;10.00;99.90
3492;DHT22;1760;52.480;13.422;2022-09-21T00:21:36;10.10;99.90
3492;DHT22;1760;52.480;13.422;2022-09-21T00:24:04;10.10;99.90
3492;DHT22;1760;52.480;13.422;2022-09-21T00:26:31;10.10;99.90
3492;DHT22;1760;52.480;13.422;2022-09-21T00:29:00;10.10;99.90
3492;DHT22;1760;52.480;13.422;2022-09-21T00:31:29;10.00;99.90
3492;DHT22;1760;52.480;13.422;2022-09-21T00:33:57;10.00;99.90
3492;DHT22;1760;52.480;13.422;2022-09-21T00:36:25;10.00;99.90
3492;DHT22;1760;52.480;13.422;2022-09-21T00:38:54;10.00;99.90
3492;DHT22;1760;52.480;13.422;2022-09-21T00:41:21;10.00;99.90
3492;DHT22;1760;52.480;13.422;2022-09-21T00:44:18;10.00;99.90
3492;DHT22;1760;52.480;13.422;2022-09-21T00:46:47;10.00;99.90
3492;DHT22;1760;52.480;13.422;2022-09-21T00:49:15;10.10;99.90
3492;DHT22;1760;52.480;13.422;2022-09-21T00:51:43;10.10;99.90
3492;DHT22;1760;52.480;13.422;2022-09-21T00:54:12;10.10;99.90
3492;DHT22;1760;52.480;13.422;2022-09-21T00:56:41;10.10;99.90
3492;DHT22;1760;52.480;13.422;2022-09-21T00:59:09;10.10;99.90
3492;DHT22;1760;52.480;13.422;2022-09-21T01:01:37;10.10;99.90
3492;DHT22;1760;52.480;13.422;2022-09-21T01:04:05;10.10;99.90
3492;DHT22;1760;52.480;13.422;2022-09-21T01:06:36;10.10;99.90
3492;DHT22;1760;52.480;13.422;2022-09-21T01:09:07;10.10;99.90
3492;DHT22;1760;52.480;13.422;2022-09-21T01:11:44;10.10;99.90
3492;DHT22;1760;52.480;13.422;2022-09-21T01:14:25;10.10;99.90
3492;DHT22;1760;52.480;13.422;2022-09-21T01:17:06;10.10;99.90
3492;DHT22;1760;52.480;13.422;2022-09-21T01:20:09;10.10;99.90
3492;DHT22;1760;52.480;13.422;2022-09-21T01:22:52;10.10;99.90
3492;DHT22;1760;52.480;13.422;2022-09-21T01:25:28;10.10;99.90
3492;DHT22;1760;52.480;13.422;2022-09-21T01:28:04;10.10;99.90
3492;DHT22;1760;52.480;13.422;2022-09-21T01:30:36;10.10;99.90
3492;DHT22;1760;52.480;13.422;2022-09-21T01:33:14;10.10;99.90
3492;DHT22;1760;52.480;13.422;2022-09-21T01:35:46;10.10;99.90
3492;DHT22;1760;52.480;13.422;2022-09-21T01:38:20;10.10;99.90
3492;DHT22;1760;52.480;13.422;2022-09-21T01:40:51;10.10;99.90
3492;DHT22;1760;52.480;13.422;2022-09-21T01:43:23;10.10;99.90
3492;DHT22;1760;52.480;13.422;2022-09-21T01:45:56;10.10;99.90
3492;DHT22;1760;52.480;13.422;2022-09-21T01:48:26;10.10;99.90
3492;DHT22;1760;52.480;13.422;2022-09-21T01:50:56;10.10;99.90
3492;DHT22;1760;52.480;13.422;2022-09-21T01:53:27;10.10;99.90
3492;DHT22;1760;52.480;13.422;2022-09-21T01:55:58;10.00;99.90
3492;DHT22;1760;52.480;13.422;2022-09-21T01:58:30;10.00;99.90
3492;DHT22;1760;52.480;13.422;2022-09-21T02:01:00;10.00;99.90
3492;DHT22;1760;52.480;13.422;2022-09-21T02:03:39;10.00;99.90
3492;DHT22;1760;52.480;13.422;2022-09-21T02:06:08;10.00;99.90
3492;DHT22;1760;52.480;13.422;2022-09-21T02:08:37;9.90;99.90
3492;DHT22;1760;52.480;13.422;2022-09-21T02:11:07;9.90;99.90
3492;DHT22;1760;52.480;13.422;2022-09-21T02:13:39;9.90;99.90
3492;DHT22;1760;52.480;13.422;2022-09-21T02:16:22;9.90;99.90
3492;DHT22;1760;52.480;13.422;2022-09-21T02:18:55;9.90;99.90
3492;DHT22;1760;52.480;13.422;2022-09-21T02:21:31;9.90;99.90
3492;DHT22;1760;52.480;13.422;2022-09-21T02:24:05;9.80;99.90
3492;DHT22;1760;52.480;13.422;2022-09-21T02:26:41;9.80;99.90
3492;DHT22;1760;52.480;13.422;2022-09-21T02:29:18;9.90;99.90
3492;DHT22;1760;52.480;13.422;2022-09-21T02:31:50;9.90;99.90
3492;DHT22;1760;52.480;13.422;2022-09-21T02:34:23;9.80;99.90
3492;DHT22;1760;52.480;13.422;2022-09-21T02:37:01;9.80;99.90
3492;DHT22;1760;52.480;13.422;2022-09-21T02:39:33;9.90;99.90
3492;DHT22;1760;52.480;13.422;2022-09-21T02:42:10;9.80;99.90
3492;DHT22;1760;52.480;13.422;2022-09-21T02:44:45;9.80;99.90
3492;DHT22;1760;52.480;13.422;2022-09-21T02:47:18;9.80;99.90
3492;DHT22;1760;52.480;13.422;2022-09-21T02:49:50;9.80;99.90
3492;DHT22;1760;52.480;13.422;2022-09-21T02:52:23;9.70;99.90
3492;DHT22;1760;52.480;13.422;2022-09-21T02:54:53;9.70;99.90
3492;DHT22;1760;52.480;13.422;2022-09-21T02:57:22;9.70;99.90
3492;DHT22;1760;52.480;13.422;2022-09-21T02:59:52;9.60;99.90
3492;DHT22;1760;52.480;13.422;2022-09-21T03:02:36;9.60;99.90
3492;DHT22;1760;52.480;13.422;2022-09-21T03:05:04;9.60;99.90
3492;DHT22;1760;52.480;13.422;2022-09-21T03:07:31;9.60;99.90
3492;DHT22;1760;52.480;13.422;2022-09-21T03:09:58;9.60;99.90
3492;DHT22;1760;52.480;13.422;2022-09-21T03:12:24;9.60;99.90
3492;DHT22;1760;52.480;13.422;2022-09-21T03:14:51;9.50;99.90
3492;DHT22;1760;52.480;13.422;2022-09-21T03:17:18;9.60;99.90
3492;DHT22;1760;52.480;13.422;2022-09-21T03:19:46;9.60;99.90
3492;DHT22;1760;52.480;13.422;2022-09-21T03:22:15;9.50;99.90
3492;DHT22;1760;52.480;13.422;2022-09-21T03:24:42;9.60;99.90
3492;DHT22;1760;52.480;13.422;2022-09-21T03:27:15;9.60;99.90
3492;DHT22;1760;52.480;13.422;2022-09-21T03:29:42;9.60;99.90
3492;DHT22;1760;52.480;13.422;2022-09-21T03:32:15;9.60;99.90
3492;DHT22;1760;52.480;13.422;2022-09-21T03:34:42;9.60;99.90
3492;DHT22;1760;52.480;13.422;2022-09-21T03:37:10;9.50;99.90
3492;DHT22;1760;52.480;13.422;2022-09-21T03:39:40;9.50;99.90
3492;DHT22;1760;52.480;13.422;2022-09-21T03:42:07;9.50;99.90
3492;DHT22;1760;52.480;13.422;2022-09-21T03:44:35;9.50;99.90
3492;DHT22;1760;52.480;13.422;2022-09-21T03:47:02;9.50;99.90
3492;DHT22;1760;52.480;13.422;2022-09-21T03:49:33;9.50;99.90
3492;DHT22;1760;52.480;13.422;2022-09-21T03:52:00;9.50;99.90
3492;DHT22;1760;52.480;13.422;2022-09-21T03:54:28;9.50;99.90
3492;DHT22;1760;52.480;13.422;2022-09-21T03:56:55;9.50;99.90
3492;DHT22;1760;52.480;13.422;2022-09-21T03:59:22;9.50;99.90
3492;DHT22;1760;52.480;13.422;2022-09-21T04:01:49;9.50;99.90
3492;DHT22;1760;52.480;13.422;2022-09-21T04:04:16;9.40;99.90
3492;DHT22;1760;52.480;13.422;2022-09-21T04:06:43;9.50;99.90
3492;DHT22;1760;52.480;13.422;2022-09-21T04:09:10;9.40;99.90
3492;DHT22;1760;52.480;13.422;2022-09-21T04:11:39;9.40;99.90
3492;DHT22;1760;52.480;13.422;2022-09-21T04:14:05;9.40;99.90
3492;DHT22;1760;52.480;13.422;2022-09-21T04:16:36;9.30;99.90
3492;DHT22;1760;52.480;13.422;2022-09-21T04:19:03;9.40;99.90
3492;DHT22;1760;52.480;13.422;2022-09-21T04:21:30;9.40;99.90
3492;DHT22;1760;52.480;13.422;2022-09-21T04:23:57;9.30;99.90
3492;DHT22;1760;52.480;13.422;2022-09-21T04:26:25;9.30;99.90
3492;DHT22;1760;52.480;13.422;2022-09-21T04:28:54;9.30;99.90
3492;DHT22;1760;52.480;13.422;2022-09-21T04:31:22;9.40;99.90
3492;DHT22;1760;52.480;13.422;2022-09-21T04:33:49;9.40;99.90
3492;DHT22;1760;52.480;13.422;2022-09-21T04:36:17;9.30;99.90
3492;DHT22;1760;52.480;13.422;2022-09-21T04:38:44;9.30;99.90
3492;DHT22;1760;52.480;13.422;2022-09-21T04:41:12;9.30;99.90
3492;DHT22;1760;52.480;13.422;2022-09-21T04:43:40;9.30;99.90
3492;DHT22;1760;52.480;13.422;2022-09-21T04:46:11;9.40;99.90
3492;DHT22;1760;52.480;13.422;2022-09-21T04:48:39;9.30;99.90
3492;DHT22;1760;52.480;13.422;2022-09-21T04:51:07;9.30;99.90
3492;DHT22;1760;52.480;13.422;2022-09-21T04:53:34;9.40;99.90
3492;DHT22;1760;52.480;13.422;2022-09-21T04:56:04;9.30;99.90
3492;DHT22;1760;52.480;13.422;2022-09-21T04:58:32;9.30;99.90
3492;DHT22;1760;52.480;13.422;2022-09-21T05:00:59;9.40;99.90
3492;DHT22;1760;52.480;13.422;2022-09-21T05:03:27;9.40;99.90
3492;DHT22;1760;52.480;13.422;2022-09-21T05:05:56;9.40;99.90
3492;DHT22;1760;52.480;13.422;2022-09-21T05:08:24;9.30;99.90
3492;DHT22;1760;52.480;13.422;2022-09-21T05:11:10;9.30;99.90
3492;DHT22;1760;52.480;13.422;2022-09-21T05:13:38;9.30;99.90
3492;DHT22;1760;52.480;13.422;2022-09-21T05:16:05;9.30;99.90
3492;DHT22;1760;52.480;13.422;2022-09-21T05:18:34;9.30;99.90
3492;DHT22;1760;52.480;13.422;2022-09-21T05:21:02;9.40;99.90
3492;DHT22;1760;52.480;13.422;2022-09-21T05:23:30;9.40;99.90
3492;DHT22;1760;52.480;13.422;2022-09-21T05:25:58;9.40;99.90
3492;DHT22;1760;52.480;13.422;2022-09-21T05:28:26;9.40;99.90
3492;DHT22;1760;52.480;13.422;2022-09-21T05:30:59;9.40;99.90
3492;DHT22;1760;52.480;13.422;2022-09-21T05:33:29;9.40;99.90
3492;DHT22;1760;52.480;13.422;2022-09-21T05:36:03;9.50;99.90
3492;DHT22;1760;52.480;13.422;2022-09-21T05:38:32;9.40;99.90
3492;DHT22;1760;52.480;13.422;2022-09-21T05:41:00;9.40;99.90
3492;DHT22;1760;52.480;13.422;2022-09-21T05:43:27;9.50;99.90
3492;DHT22;1760;52.480;13.422;2022-09-21T05:45:59;9.50;99.90
3492;DHT22;1760;52.480;13.422;2022-09-21T05:48:32;9.50;99.90
3492;DHT22;1760;52.480;13.422;2022-09-21T05:51:04;9.60;99.90
3492;DHT22;1760;52.480;13.422;2022-09-21T05:53:44;9.60;99.90
3492;DHT22;1760;52.480;13.422;2022-09-21T05:56:21;9.60;99.90
3492;DHT22;1760;52.480;13.422;2022-09-21T05:58:54;9.70;99.90
3492;DHT22;1760;52.480;13.422;2022-09-21T06:01:35;9.70;99.90
3492;DHT22;1760;52.480;13.422;2022-09-21T06:04:08;9.80;99.90
3492;DHT22;1760;52.480;13.422;2022-09-21T06:06:38;9.90;99.90
3492;DHT22;1760;52.480;13.422;2022-09-21T06:09:06;10.00;99.90
3492;DHT22;1760;52.480;13.422;2022-09-21T06:11:33;10.00;99.90
3492;DHT22;1760;52.480;13.422;2022-09-21T06:14:00;10.10;99.90
3492;DHT22;1760;52.480;13.422;2022-09-21T06:16:35;10.20;99.90
3492;DHT22;1760;52.480;13.422;2022-09-21T06:19:02;10.30;99.90
3492;DHT22;1760;52.480;13.422;2022-09-21T06:21:29;10.40;99.90
3492;DHT22;1760;52.480;13.422;2022-09-21T06:23:57;10.50;99.90
3492;DHT22;1760;52.480;13.422;2022-09-21T06:26:24;10.50;99.90
3492;DHT22;1760;52.480;13.422;2022-09-21T06:28:52;10.70;99.90
3492;DHT22;1760;52.480;13.422;2022-09-21T06:31:19;10.80;99.90
3492;DHT22;1760;52.480;13.422;2022-09-21T06:33:46;10.90;99.90
3492;DHT22;1760;52.480;13.422;2022-09-21T06:36:13;11.00;99.90
3492;DHT22;1760;52.480;13.422;2022-09-21T06:38:40;11.00;99.90
3492;DHT22;1760;52.480;13.422;2022-09-21T06:41:08;11.20;99.90
3492;DHT22;1760;52.480;13.422;2022-09-21T06:43:35;11.30;99.90
3492;DHT22;1760;52.480;13.422;2022-09-21T06:46:02;11.40;99.90
3492;DHT22;1760;52.480;13.422;2022-09-21T06:48:32;11.50;99.90
3492;DHT22;1760;52.480;13.422;2022-09-21T06:50:59;11.50;99.90
3492;DHT22;1760;52.480;13.422;2022-09-21T06:53:28;11.60;99.90
3492;DHT22;1760;52.480;13.422;2022-09-21T06:55:59;11.70;99.90
3492;DHT22;1760;52.480;13.422;2022-09-21T06:58:28;11.70;99.90
3492;DHT22;1760;52.480;13.422;2022-09-21T07:00:55;11.80;99.90
3492;DHT22;1760;52.480;13.422;2022-09-21T07:03:22;11.90;99.90
3492;DHT22;1760;52.480;13.422;2022-09-21T07:05:49;12.00;99.90
3492;DHT22;1760;52.480;13.422;2022-09-21T07:08:16;12.00;99.90
3492;DHT22;1760;52.480;13.422;2022-09-21T07:10:43;12.10;99.90
3492;DHT22;1760;52.480;13.422;2022-09-21T07:13:10;12.10;99.90
3492;DHT22;1760;52.480;13.422;2022-09-21T07:15:39;12.20;99.90
3492;DHT22;1760;52.480;13.422;2022-09-21T07:18:10;12.20;99.90
3492;DHT22;1760;52.480;13.422;2022-09-21T07:20:37;12.30;99.90
3492;DHT22;1760;52.480;13.422;2022-09-21T07:23:09;12.40;99.90
3492;DHT22;1760;52.480;13.422;2022-09-21T07:25:36;12.50;99.90
3492;DHT22;1760;52.480;13.422;2022-09-21T07:28:05;12.60;99.90
3492;DHT22;1760;52.480;13.422;2022-09-21T07:30:32;12.70;99.90
3492;DHT22;1760;52.480;13.422;2022-09-21T07:33:00;12.90;99.90
3492;DHT22;1760;52.480;13.422;2022-09-21T07:35:27;13.00;99.90
3492;DHT22;1760;52.480;13.422;2022-09-21T07:37:56;12.90;99.90
3492;DHT22;1760;52.480;13.422;2022-09-21T07:40:24;13.00;99.90
3492;DHT22;1760;52.480;13.422;2022-09-21T07:42:50;13.00;99.90
3492;DHT22;1760;52.480;13.422;2022-09-21T07:45:17;13.00;99.90
3492;DHT22;1760;52.480;13.422;2022-09-21T07:47:44;12.90;99.90
3492;DHT22;1760;52.480;13.422;2022-09-21T07:50:12;13.00;99.90
3492;DHT22;1760;52.480;13.422;2022-09-21T07:52:39;13.10;99.90
3492;DHT22;1760;52.480;13.422;2022-09-21T07:55:07;13.20;99.90
3492;DHT22;1760;52.480;13.422;2022-09-21T07:57:33;13.40;99.90
3492;DHT22;1760;52.480;13.422;2022-09-21T08:00:18;13.50;99.90
3492;DHT22;1760;52.480;13.422;2022-09-21T08:02:45;13.50;99.90
3492;DHT22;1760;52.480;13.422;2022-09-21T08:05:13;13.50;99.90
3492;DHT22;1760;52.480;13.422;2022-09-21T08:07:40;13.60;99.90
3492;DHT22;1760;52.480;13.422;2022-09-21T08:10:08;13.60;99.90
3492;DHT22;1760;52.480;13.422;2022-09-21T08:12:35;13.70;99.90
3492;DHT22;1760;52.480;13.422;2022-09-21T08:15:02;13.80;99.90
3492;DHT22;1760;52.480;13.422;2022-09-21T08:17:29;13.90;99.90
3492;DHT22;1760;52.480;13.422;2022-09-21T08:19:56;14.00;99.90
3492;DHT22;1760;52.480;13.422;2022-09-21T08:22:24;14.20;99.90
3492;DHT22;1760;52.480;13.422;2022-09-21T08:24:51;14.30;99.90
3492;DHT22;1760;52.480;13.422;2022-09-21T08:27:17;14.60;99.90
3492;DHT22;1760;52.480;13.422;2022-09-21T08:29:45;14.70;99.90
3492;DHT22;1760;52.480;13.422;2022-09-21T08:32:12;14.80;99.90
3492;DHT22;1760;52.480;13.422;2022-09-21T08:34:39;14.90;99.90
3492;DHT22;1760;52.480;13.422;2022-09-21T08:37:07;14.90;99.90
3492;DHT22;1760;52.480;13.422;2022-09-21T08:39:35;14.90;99.90
3492;DHT22;1760;52.480;13.422;2022-09-21T08:42:13;15.00;99.90
3492;DHT22;1760;52.480;13.422;2022-09-21T08:44:48;15.10;99.90
3492;DHT22;1760;52.480;13.422;2022-09-21T08:47:21;15.10;99.90
3492;DHT22;1760;52.480;13.422;2022-09-21T08:49:57;15.10;99.90
3492;DHT22;1760;52.480;13.422;2022-09-21T08:52:25;15.20;99.90
3492;DHT22;1760;52.480;13.422;2022-09-21T08:54:55;15.40;99.90
3492;DHT22;1760;52.480;13.422;2022-09-21T08:57:28;15.60;99.90
3492;DHT22;1760;52.480;13.422;2022-09-21T08:59:56;15.80;99.90
3492;DHT22;1760;52.480;13.422;2022-09-21T09:02:38;15.80;99.90
3492;DHT22;1760;52.480;13.422;2022-09-21T09:05:24;15.90;99.90
3492;DHT22;1760;52.480;13.422;2022-09-21T09:08:09;16.10;99.90
3492;DHT22;1760;52.480;13.422;2022-09-21T09:10:52;16.30;99.90
3492;DHT22;1760;52.480;13.422;2022-09-21T09:16:32;16.70;99.90
3492;DHT22;1760;52.480;13.422;2022-09-21T09:19:05;16.80;99.90
3492;DHT22;1760;52.480;13.422;2022-09-21T09:21:38;16.90;99.90
3492;DHT22;1760;52.480;13.422;2022-09-21T09:24:10;17.20;99.90
3492;DHT22;1760;52.480;13.422;2022-09-21T09:26:41;17.30;99.90
3492;DHT22;1760;52.480;13.422;2022-09-21T09:29:16;17.40;99.90
3492;DHT22;1760;52.480;13.422;2022-09-21T09:31:46;17.50;99.90
3492;DHT22;1760;52.480;13.422;2022-09-21T09:34:17;18.10;99.90
3492;DHT22;1760;52.480;13.422;2022-09-21T09:36:52;18.90;99.90
3492;DHT22;1760;52.480;13.422;2022-09-21T09:39:21;19.50;99.90
3492;DHT22;1760;52.480;13.422;2022-09-21T09:48:01;21.00;99.90
3492;DHT22;1760;52.480;13.422;2022-09-21T09:50:34;22.00;99.90
3492;DHT22;1760;52.480;13.422;2022-09-21T09:53:04;22.70;99.90
3492;DHT22;1760;52.480;13.422;2022-09-21T09:55:37;22.60;99.90
3492;DHT22;1760;52.480;13.422;2022-09-21T09:58:16;22.00;99.90
3492;DHT22;1760;52.480;13.422;2022-09-21T10:00:43;22.00;99.90
3492;DHT22;1760;52.480;13.422;2022-09-21T10:03:15;22.60;99.90
3492;DHT22;1760;52.480;13.422;2022-09-21T10:05:44;23.20;99.90
3492;DHT22;1760;52.480;13.422;2022-09-21T10:08:29;24.00;99.90
3492;DHT22;1760;52.480;13.422;2022-09-21T10:10:56;24.70;99.90
3492;DHT22;1760;52.480;13.422;2022-09-21T10:13:28;25.00;99.20
3492;DHT22;1760;52.480;13.422;2022-09-21T10:15:58;25.10;97.10
3492;DHT22;1760;52.480;13.422;2022-09-21T10:18:32;25.50;97.10
3492;DHT22;1760;52.480;13.422;2022-09-21T10:21:03;25.70;94.00
3492;DHT22;1760;52.480;13.422;2022-09-21T10:23:31;25.80;91.30
3492;DHT22;1760;52.480;13.422;2022-09-21T10:26:03;25.50;91.10
3492;DHT22;1760;52.480;13.422;2022-09-21T10:28:33;25.60;91.60
3492;DHT22;1760;52.480;13.422;2022-09-21T10:31:24;25.70;91.00
3492;DHT22;1760;52.480;13.422;2022-09-21T10:33:53;25.40;90.90
3492;DHT22;1760;52.480;13.422;2022-09-21T10:36:32;25.30;91.00
3492;DHT22;1760;52.480;13.422;2022-09-21T10:39:23;25.30;91.10
3492;DHT22;1760;52.480;13.422;2022-09-21T10:41:53;25.30;91.10
3492;DHT22;1760;52.480;13.422;2022-09-21T10:44:26;25.20;87.60
3492;DHT22;1760;52.480;13.422;2022-09-21T10:46:54;25.20;84.40
3492;DHT22;1760;52.480;13.422;2022-09-21T10:49:23;24.80;81.80
3492;DHT22;1760;52.480;13.422;2022-09-21T10:51:53;24.20;86.30
3492;DHT22;1760;52.480;13.422;2022-09-21T10:54:25;23.90;87.90
3492;DHT22;1760;52.480;13.422;2022-09-21T10:56:54;23.60;90.10
3492;DHT22;1760;52.480;13.422;2022-09-21T10:59:26;23.10;90.70
3492;DHT22;1760;52.480;13.422;2022-09-21T11:01:55;22.80;91.20
3492;DHT22;1760;52.480;13.422;2022-09-21T11:04:29;22.60;89.50
3492;DHT22;1760;52.480;13.422;2022-09-21T11:07:04;22.40;93.80
3492;DHT22;1760;52.480;13.422;2022-09-21T11:09:38;22.40;90.50
3492;DHT22;1760;52.480;13.422;2022-09-21T11:12:20;22.10;91.80
3492;DHT22;1760;52.480;13.422;2022-09-21T11:14:56;22.00;91.40
3492;DHT22;1760;52.480;13.422;2022-09-21T11:17:32;21.70;94.40
3492;DHT22;1760;52.480;13.422;2022-09-21T11:20:08;21.60;95.40
3492;DHT22;1760;52.480;13.422;2022-09-21T11:22:43;21.50;95.20
3492;DHT22;1760;52.480;13.422;2022-09-21T11:25:23;21.40;93.00
3492;DHT22;1760;52.480;13.422;2022-09-21T11:27:56;21.30;93.10
3492;DHT22;1760;52.480;13.422;2022-09-21T11:30:31;21.10;94.20
3492;DHT22;1760;52.480;13.422;2022-09-21T11:33:21;21.10;95.60
3492;DHT22;1760;52.480;13.422;2022-09-21T11:36:00;21.00;95.40
3492;DHT22;1760;52.480;13.422;2022-09-21T11:38:38;20.80;95.00
3492;DHT22;1760;52.480;13.422;2022-09-21T11:41:27;20.40;97.60
3492;DHT22;1760;52.480;13.422;2022-09-21T11:44:20;20.00;98.50
3492;DHT22;1760;52.480;13.422;2022-09-21T11:46:58;19.70;99.90
3492;DHT22;1760;52.480;13.422;2022-09-21T11:49:45;19.50;99.90
3492;DHT22;1760;52.480;13.422;2022-09-21T11:52:24;19.30;99.90
3492;DHT22;1760;52.480;13.422;2022-09-21T11:55:22;19.20;99.90
3492;DHT22;1760;52.480;13.422;2022-09-21T11:57:55;19.30;99.90
3492;DHT22;1760;52.480;13.422;2022-09-21T12:00:25;19.30;99.90
3492;DHT22;1760;52.480;13.422;2022-09-21T12:03:36;19.40;99.90
3492;DHT22;1760;52.480;13.422;2022-09-21T12:06:32;19.40;99.90
3492;DHT22;1760;52.480;13.422;2022-09-21T12:12:18;19.40;99.90
3492;DHT22;1760;52.480;13.422;2022-09-21T12:14:52;19.40;99.90
3492;DHT22;1760;52.480;13.422;2022-09-21T12:17:28;19.20;99.90
3492;DHT22;1760;52.480;13.422;2022-09-21T12:20:02;18.90;99.90
3492;DHT22;1760;52.480;13.422;2022-09-21T12:22:34;18.60;99.90
3492;DHT22;1760;52.480;13.422;2022-09-21T12:25:10;18.30;99.90
3492;DHT22;1760;52.480;13.422;2022-09-21T12:27:40;18.10;99.90
3492;DHT22;1760;52.480;13.422;2022-09-21T12:30:11;17.90;99.90
3492;DHT22;1760;52.480;13.422;2022-09-21T12:32:48;17.70;99.90
3492;DHT22;1760;52.480;13.422;2022-09-21T12:35:24;17.70;99.90
3492;DHT22;1760;52.480;13.422;2022-09-21T12:37:57;17.70;99.90
3492;DHT22;1760;52.480;13.422;2022-09-21T12:40:35;17.80;99.90
3492;DHT22;1760;52.480;13.422;2022-09-21T12:43:12;17.90;99.90
3492;DHT22;1760;52.480;13.422;2022-09-21T12:45:47;18.00;99.90
3492;DHT22;1760;52.480;13.422;2022-09-21T12:48:23;18.10;99.90
3492;DHT22;1760;52.480;13.422;2022-09-21T12:50:56;18.30;99.90
3492;DHT22;1760;52.480;13.422;2022-09-21T12:53:26;18.50;99.90
3492;DHT22;1760;52.480;13.422;2022-09-21T12:55:58;18.50;99.90
3492;DHT22;1760;52.480;13.422;2022-09-21T12:58:41;18.50;99.90
3492;DHT22;1760;52.480;13.422;2022-09-21T13:01:19;18.50;99.90
3492;DHT22;1760;52.480;13.422;2022-09-21T13:03:57;18.30;99.90
3492;DHT22;1760;52.480;13.422;2022-09-21T13:06:56;18.20;99.90
3492;DHT22;1760;52.480;13.422;2022-09-21T13:09:28;17.90;99.90
3492;DHT22;1760;52.480;13.422;2022-09-21T13:11:59;17.80;99.90
3492;DHT22;1760;52.480;13.422;2022-09-21T13:14:32;18.00;99.90
3492;DHT22;1760;52.480;13.422;2022-09-21T13:17:03;18.30;99.90
3492;DHT22;1760;52.480;13.422;2022-09-21T13:19:33;18.60;99.90
3492;DHT22;1760;52.480;13.422;2022-09-21T13:22:12;18.70;99.90
3492;DHT22;1760;52.480;13.422;2022-09-21T13:24:45;18.60;99.90
3492;DHT22;1760;52.480;13.422;2022-09-21T13:27:12;18.60;99.90
3492;DHT22;1760;52.480;13.422;2022-09-21T13:29:40;18.70;99.90
3492;DHT22;1760;52.480;13.422;2022-09-21T13:32:25;18.80;99.90
3492;DHT22;1760;52.480;13.422;2022-09-21T13:35:49;18.90;99.90
3492;DHT22;1760;52.480;13.422;2022-09-21T13:38:23;19.00;99.90
3492;DHT22;1760;52.480;13.422;2022-09-21T13:40:56;19.10;99.90
3492;DHT22;1760;52.480;13.422;2022-09-21T13:43:45;19.10;99.90
3492;DHT22;1760;52.480;13.422;2022-09-21T13:46:49;19.20;99.90
3492;DHT22;1760;52.480;13.422;2022-09-21T13:49:31;19.30;99.90
3492;DHT22;1760;52.480;13.422;2022-09-21T13:52:01;19.30;99.90
3492;DHT22;1760;52.480;13.422;2022-09-21T13:54:32;19.20;99.90
3492;DHT22;1760;52.480;13.422;2022-09-21T13:57:04;19.10;99.90
3492;DHT22;1760;52.480;13.422;2022-09-21T13:59:35;18.90;99.90
3492;DHT22;1760;52.480;13.422;2022-09-21T14:02:21;18.80;99.90
3492;DHT22;1760;52.480;13.422;2022-09-21T14:04:50;18.60;99.90
3492;DHT22;1760;52.480;13.422;2022-09-21T14:07:17;18.50;99.90
3492;DHT22;1760;52.480;13.422;2022-09-21T14:09:53;18.50;99.90
3492;DHT22;1760;52.480;13.422;2022-09-21T14:12:23;18.60;99.90
3492;DHT22;1760;52.480;13.422;2022-09-21T14:15:34;18.70;99.90
3492;DHT22;1760;52.480;13.422;2022-09-21T14:18:33;18.80;99.90
3492;DHT22;1760;52.480;13.422;2022-09-21T14:21:12;18.60;99.90
3492;DHT22;1760;52.480;13.422;2022-09-21T14:26:57;18.40;99.90
3492;DHT22;1760;52.480;13.422;2022-09-21T14:29:29;18.40;99.90
3492;DHT22;1760;52.480;13.422;2022-09-21T14:31:59;18.50;99.90
3492;DHT22;1760;52.480;13.422;2022-09-21T14:34:32;18.50;99.90
3492;DHT22;1760;52.480;13.422;2022-09-21T14:37:04;18.60;99.90
3492;DHT22;1760;52.480;13.422;2022-09-21T14:39:36;18.60;99.90
3492;DHT22;1760;52.480;13.422;2022-09-21T14:42:12;18.70;99.90
3492;DHT22;1760;52.480;13.422;2022-09-21T14:44:40;18.70;99.90
3492;DHT22;1760;52.480;13.422;2022-09-21T14:47:22;18.70;99.90
3492;DHT22;1760;52.480;13.422;2022-09-21T14:50:14;18.70;99.90
3492;DHT22;1760;52.480;13.422;2022-09-21T14:52:58;18.60;99.90
3492;DHT22;1760;52.480;13.422;2022-09-21T14:55:31;18.50;99.90
3492;DHT22;1760;52.480;13.422;2022-09-21T14:58:18;18.40;99.90
3492;DHT22;1760;52.480;13.422;2022-09-21T15:00:49;18.50;99.90
3492;DHT22;1760;52.480;13.422;2022-09-21T15:03:48;18.50;99.90
3492;DHT22;1760;52.480;13.422;2022-09-21T15:06:23;18.50;99.90
3492;DHT22;1760;52.480;13.422;2022-09-21T15:09:39;18.60;99.90
3492;DHT22;1760;52.480;13.422;2022-09-21T15:12:36;18.50;99.90
3492;DHT22;1760;52.480;13.422;2022-09-21T15:15:17;18.50;99.90
3492;DHT22;1760;52.480;13.422;2022-09-21T15:17:50;18.30;99.90
3492;DHT22;1760;52.480;13.422;2022-09-21T15:20:21;18.20;99.90
3492;DHT22;1760;52.480;13.422;2022-09-21T15:22:53;18.10;99.90
3492;DHT22;1760;52.480;13.422;2022-09-21T15:25:21;18.10;99.90
3492;DHT22;1760;52.480;13.422;2022-09-21T15:27:51;18.00;99.90
3492;DHT22;1760;52.480;13.422;2022-09-21T15:30:22;17.80;99.90
3492;DHT22;1760;52.480;13.422;2022-09-21T15:32:52;17.70;99.90
3492;DHT22;1760;52.480;13.422;2022-09-21T15:35:22;17.70;99.90
3492;DHT22;1760;52.480;13.422;2022-09-21T15:37:50;17.60;99.90
3492;DHT22;1760;52.480;13.422;2022-09-21T15:40:20;17.60;99.90
3492;DHT22;1760;52.480;13.422;2022-09-21T15:42:59;17.50;99.90
3492;DHT22;1760;52.480;13.422;2022-09-21T15:45:29;17.40;99.90
3492;DHT22;1760;52.480;13.422;2022-09-21T15:47:58;17.40;99.90
3492;DHT22;1760;52.480;13.422;2022-09-21T15:50:26;17.30;99.90
3492;DHT22;1760;52.480;13.422;2022-09-21T15:52:57;17.30;99.90
3492;DHT22;1760;52.480;13.422;2022-09-21T15:55:26;17.20;99.90
3492;DHT22;1760;52.480;13.422;2022-09-21T15:57:56;17.20;99.90
3492;DHT22;1760;52.480;13.422;2022-09-21T16:00:25;17.10;99.90
3492;DHT22;1760;52.480;13.422;2022-09-21T16:02:59;17.10;99.90
3492;DHT22;1760;52.480;13.422;2022-09-21T16:05:32;17.00;99.90
3492;DHT22;1760;52.480;13.422;2022-09-21T16:08:09;17.00;99.90
3492;DHT22;1760;52.480;13.422;2022-09-21T16:10:42;16.90;99.90
3492;DHT22;1760;52.480;13.422;2022-09-21T16:13:12;16.90;99.90
3492;DHT22;1760;52.480;13.422;2022-09-21T16:16:03;16.90;99.90
3492;DHT22;1760;52.480;13.422;2022-09-21T16:18:39;16.80;99.90
3492;DHT22;1760;52.480;13.422;2022-09-21T16:23:51;16.60;99.90
3492;DHT22;1760;52.480;13.422;2022-09-21T16:26:22;16.60;99.90
3492;DHT22;1760;52.480;13.422;2022-09-21T16:28:56;16.50;99.90
3492;DHT22;1760;52.480;13.422;2022-09-21T16:31:27;16.50;99.90
3492;DHT22;1760;52.480;13.422;2022-09-21T16:34:04;16.50;99.90
3492;DHT22;1760;52.480;13.422;2022-09-21T16:36:40;16.40;99.90
3492;DHT22;1760;52.480;13.422;2022-09-21T16:39:14;16.40;99.90
3492;DHT22;1760;52.480;13.422;2022-09-21T16:41:53;16.40;99.90
3492;DHT22;1760;52.480;13.422;2022-09-21T16:44:24;16.50;99.90